| time (UTC) | temp F | wind direction | speed knots | gust knots | rain 1hr in | rain 24hr in | rain mn in | humidity % | barometer mb |
| 20260510045007 | 56 | 251 | 0.0 | 0.0 | 0.00 | 0.03 | 0.00 | 86 | 1010.7 |
| 20260510044533 | 56 | 251 | 0.0 | 0.0 | 0.00 | 0.03 | 0.00 | 86 | 1010.7 |
| 20260510044003 | 56 | 251 | 0.0 | 0.0 | 0.00 | 0.03 | 0.00 | 85 | 1010.7 |
| 20260510043502 | 56 | 251 | 0.0 | 0.0 | 0.00 | 0.03 | 0.00 | 85 | 1010.8 |
| 20260510043004 | 57 | 251 | 0.0 | 0.0 | 0.00 | 0.03 | 0.00 | 85 | 1010.8 |
| 20260510042504 | 57 | 250 | 0.0 | 0.0 | 0.00 | 0.03 | 0.00 | 84 | 1010.7 |
| 20260510042003 | 57 | 251 | 0.0 | 0.0 | 0.00 | 0.03 | 0.00 | 84 | 1010.7 |
| 20260510041506 | 57 | 251 | 0.0 | 0.9 | 0.00 | 0.03 | 0.00 | 84 | 1010.7 |
| 20260510041003 | 57 | 251 | 0.0 | 0.9 | 0.00 | 0.03 | 0.00 | 84 | 1010.5 |
| 20260510040506 | 57 | 251 | 0.0 | 0.0 | 0.00 | 0.03 | 0.00 | 84 | 1010.6 |
| 20260510040008 | 58 | 251 | 0.0 | 0.0 | 0.00 | 0.03 | 0.00 | 84 | 1010.4 |
| 20260510035505 | 58 | 251 | 0.0 | 0.0 | 0.00 | 0.03 | 0.03 | 84 | 1010.4 |
| 20260510035007 | 58 | 251 | 0.0 | 0.0 | 0.00 | 0.03 | 0.03 | 83 | 1010.3 |
| 20260510034511 | 58 | 250 | 0.0 | 0.0 | 0.00 | 0.03 | 0.03 | 82 | 1010.3 |
| 20260510034004 | 58 | 251 | 0.0 | 0.0 | 0.00 | 0.03 | 0.03 | 82 | 1010.3 |
| 20260510033507 | 59 | 251 | 0.0 | 0.0 | 0.00 | 0.03 | 0.03 | 83 | 1010.4 |
| 20260510033014 | 59 | 251 | 0.0 | 0.0 | 0.00 | 0.03 | 0.03 | 82 | 1010.3 |
| 20260510032504 | 59 | 251 | 0.0 | 0.0 | 0.00 | 0.03 | 0.03 | 83 | 1010.3 |
| 20260510032003 | 59 | 251 | 0.0 | 0.0 | 0.00 | 0.03 | 0.03 | 82 | 1010.4 |
| 20260510031507 | 59 | 250 | 0.0 | 0.0 | 0.00 | 0.03 | 0.03 | 81 | 1010.4 |
| 20260510031004 | 59 | 251 | 0.0 | 0.0 | 0.00 | 0.03 | 0.03 | 81 | 1010.4 |
| 20260510030506 | 59 | 251 | 0.0 | 0.0 | 0.00 | 0.03 | 0.03 | 81 | 1010.4 |
| 20260510030007 | 59 | 251 | 0.0 | 0.0 | 0.00 | 0.03 | 0.03 | 81 | 1010.4 |
| 20260510025508 | 59 | 251 | 0.0 | 0.0 | 0.00 | 0.03 | 0.03 | 81 | 1010.4 |
| 20260510025005 | 59 | 251 | 0.0 | 0.0 | 0.00 | 0.03 | 0.03 | 81 | 1010.4 |
| 20260510024509 | 59 | 250 | 0.0 | 0.0 | 0.00 | 0.03 | 0.03 | 80 | 1010.4 |
| 20260510024005 | 59 | 250 | 0.0 | 0.0 | 0.00 | 0.03 | 0.03 | 79 | 1010.4 |
| 20260510023505 | 59 | 251 | 0.0 | 0.0 | 0.00 | 0.03 | 0.03 | 79 | 1010.3 |
| 20260510023012 | 60 | 251 | 0.0 | 0.0 | 0.00 | 0.03 | 0.03 | 78 | 1010.2 |
| 20260510022507 | 60 | 251 | 0.0 | 0.0 | 0.00 | 0.03 | 0.03 | 78 | 1010.2 |
| 20260510022010 | 60 | 251 | 0.0 | 0.0 | 0.00 | 0.03 | 0.03 | 78 | 1010.2 |
| 20260510021518 | 60 | 251 | 0.0 | 0.0 | 0.00 | 0.03 | 0.03 | 77 | 1010.1 |
| 20260510021009 | 60 | 251 | 0.0 | 0.0 | 0.00 | 0.03 | 0.03 | 77 | 1010.0 |
| 20260510020509 | 60 | 251 | 0.0 | 0.0 | 0.00 | 0.03 | 0.03 | 76 | 1010.1 |
| 20260510020005 | 61 | 250 | 0.0 | 0.0 | 0.00 | 0.03 | 0.03 | 76 | 1010.0 |
| 20260510015504 | 61 | 251 | 0.0 | 0.0 | 0.00 | 0.03 | 0.03 | 75 | 1009.9 |
| 20260510015007 | 61 | 251 | 0.0 | 0.0 | 0.00 | 0.03 | 0.03 | 75 | 1009.8 |
| 20260510014506 | 61 | 250 | 0.0 | 0.0 | 0.00 | 0.03 | 0.03 | 75 | 1009.9 |
| 20260510014005 | 61 | 251 | 0.0 | 0.0 | 0.00 | 0.03 | 0.03 | 74 | 1009.8 |
| 20260510013505 | 62 | 251 | 0.0 | 0.0 | 0.00 | 0.03 | 0.03 | 73 | 1009.8 |
| 20260510013009 | 62 | 250 | 0.0 | 0.0 | 0.00 | 0.03 | 0.03 | 73 | 1009.8 |
| 20260510012504 | 62 | 250 | 0.0 | 0.0 | 0.00 | 0.03 | 0.03 | 72 | 1009.6 |
| 20260510012007 | 63 | 251 | 0.0 | 0.0 | 0.00 | 0.03 | 0.03 | 71 | 1009.5 |
| 20260510011519 | 63 | 251 | 0.0 | 0.0 | 0.00 | 0.03 | 0.03 | 71 | 1009.3 |
| 20260510011006 | 63 | 251 | 0.0 | 0.0 | 0.00 | 0.03 | 0.03 | 70 | 1009.3 |
| 20260510010506 | 64 | 251 | 0.0 | 0.0 | 0.00 | 0.03 | 0.03 | 68 | 1009.3 |
| 20260510010025 | 64 | 251 | 0.0 | 0.0 | 0.00 | 0.03 | 0.03 | 67 | 1009.2 |
| 20260510005509 | 64 | 251 | 0.0 | 0.0 | 0.00 | 0.03 | 0.03 | 67 | 1009.1 |
| 20260510005008 | 65 | 250 | 0.0 | 0.0 | 0.00 | 0.03 | 0.03 | 67 | 1009.1 |
| 20260510004524 | 65 | 251 | 0.0 | 0.0 | 0.00 | 0.03 | 0.03 | 66 | 1009.1 |
| 20260510004004 | 66 | 251 | 0.0 | 0.0 | 0.00 | 0.03 | 0.03 | 65 | 1009.0 |
| 20260510003504 | 67 | 250 | 0.0 | 0.0 | 0.00 | 0.03 | 0.03 | 62 | 1008.9 |
| 20260510003007 | 67 | 251 | 0.0 | 0.0 | 0.00 | 0.03 | 0.03 | 62 | 1008.9 |
| 20260510002502 | 68 | 250 | 0.0 | 0.0 | 0.00 | 0.03 | 0.03 | 60 | 1008.8 |
| 20260510002006 | 68 | 251 | 0.0 | 0.0 | 0.00 | 0.03 | 0.03 | 60 | 1008.9 |
| 20260510001510 | 69 | 250 | 0.0 | 0.0 | 0.00 | 0.03 | 0.03 | 58 | 1008.9 |
| 20260510001006 | 69 | 250 | 0.0 | 0.0 | 0.00 | 0.03 | 0.03 | 57 | 1008.9 |
| 20260510000507 | 70 | 250 | 0.0 | 0.0 | 0.00 | 0.03 | 0.03 | 56 | 1008.9 |
| 20260510000019 | 71 | 251 | 0.0 | 0.0 | 0.00 | 0.03 | 0.03 | 54 | 1008.8 |
| 20260509235508 | 71 | 251 | 0.0 | 0.0 | 0.00 | 0.03 | 0.03 | 53 | 1008.8 |
| 20260509235009 | 72 | 250 | 0.0 | 0.9 | 0.00 | 0.03 | 0.03 | 50 | 1008.8 |
| 20260509234506 | 73 | 250 | 0.0 | 0.9 | 0.00 | 0.03 | 0.03 | 49 | 1008.8 |
| 20260509234006 | 74 | 250 | 0.0 | 0.9 | 0.00 | 0.03 | 0.03 | 46 | 1008.7 |
| 20260509233503 | 74 | 251 | 0.0 | 0.9 | 0.00 | 0.03 | 0.03 | 44 | 1008.6 |
| 20260509233008 | 75 | 249 | 0.0 | 0.9 | 0.00 | 0.03 | 0.03 | 44 | 1008.5 |
| 20260509232504 | 75 | 229 | 0.0 | 1.7 | 0.00 | 0.03 | 0.03 | 45 | 1008.5 |
| 20260509232004 | 74 | 229 | 0.0 | 1.7 | 0.00 | 0.03 | 0.03 | 44 | 1008.6 |
| 20260509231508 | 74 | 252 | 0.0 | 0.9 | 0.00 | 0.03 | 0.03 | 43 | 1008.5 |
| 20260509231005 | 74 | 84 | 0.0 | 1.7 | 0.00 | 0.03 | 0.03 | 44 | 1008.6 |
| 20260509230501 | 74 | 84 | 0.0 | 2.6 | 0.00 | 0.03 | 0.03 | 43 | 1008.5 |
| 20260509230003 | 74 | 59 | 0.0 | 2.6 | 0.00 | 0.03 | 0.03 | 43 | 1008.5 |
| 20260509225503 | 74 | 58 | 0.0 | 0.9 | 0.00 | 0.03 | 0.03 | 44 | 1008.5 |
| 20260509225002 | 74 | 58 | 0.0 | 1.7 | 0.00 | 0.03 | 0.03 | 44 | 1008.5 |
| 20260509224503 | 74 | 58 | 0.0 | 1.7 | 0.00 | 0.03 | 0.03 | 44 | 1008.5 |
| 20260509224003 | 75 | 232 | 0.0 | 0.9 | 0.00 | 0.03 | 0.03 | 44 | 1008.5 |
| 20260509223504 | 75 | 87 | 0.0 | 3.5 | 0.00 | 0.03 | 0.03 | 45 | 1008.6 |
| 20260509223008 | 75 | 87 | 0.0 | 3.5 | 0.00 | 0.03 | 0.03 | 44 | 1008.5 |
| 20260509222502 | 75 | 233 | 0.0 | 1.7 | 0.00 | 0.03 | 0.03 | 45 | 1008.4 |
| 20260509222004 | 75 | 55 | 0.0 | 1.7 | 0.00 | 0.03 | 0.03 | 44 | 1008.6 |
| 20260509221506 | 75 | 71 | 0.0 | 1.7 | 0.00 | 0.03 | 0.03 | 43 | 1008.6 |
| 20260509221004 | 75 | 77 | 0.0 | 1.7 | 0.00 | 0.03 | 0.03 | 45 | 1008.6 |
| 20260509220506 | 75 | 280 | 0.0 | 0.9 | 0.00 | 0.03 | 0.03 | 45 | 1008.5 |
| 20260509220012 | 75 | 99 | 0.0 | 2.6 | 0.00 | 0.03 | 0.03 | 45 | 1008.5 |
| 20260509215505 | 75 | 72 | 0.0 | 2.6 | 0.00 | 0.03 | 0.03 | 45 | 1008.6 |
| 20260509215001 | 75 | 117 | 0.9 | 2.6 | 0.00 | 0.03 | 0.03 | 44 | 1008.6 |
| 20260509214504 | 76 | 44 | 0.0 | 1.7 | 0.00 | 0.03 | 0.03 | 45 | 1008.4 |
| 20260509214004 | 75 | 215 | 0.0 | 2.6 | 0.00 | 0.03 | 0.03 | 45 | 1008.5 |
| 20260509213504 | 75 | 143 | 0.0 | 2.6 | 0.00 | 0.03 | 0.03 | 44 | 1008.5 |
| 20260509213004 | 76 | 69 | 0.9 | 2.6 | 0.00 | 0.03 | 0.03 | 43 | 1008.4 |
| 20260509212503 | 76 | 210 | 0.0 | 3.5 | 0.00 | 0.03 | 0.03 | 44 | 1008.3 |
| 20260509212008 | 77 | 72 | 0.9 | 4.3 | 0.00 | 0.03 | 0.03 | 43 | 1008.4 |
| 20260509211506 | 77 | 240 | 1.7 | 4.3 | 0.00 | 0.03 | 0.03 | 42 | 1008.4 |
| 20260509211004 | 78 | 203 | 0.0 | 3.5 | 0.00 | 0.03 | 0.03 | 42 | 1008.4 |
| 20260509210507 | 78 | 71 | 0.0 | 3.5 | 0.00 | 0.03 | 0.03 | 42 | 1008.4 |
| 20260509210016 | 79 | 53 | 0.0 | 2.6 | 0.00 | 0.03 | 0.03 | 42 | 1008.3 |
| 20260509205505 | 79 | 214 | 0.0 | 4.3 | 0.00 | 0.03 | 0.03 | 43 | 1008.4 |
| 20260509205003 | 79 | 199 | 0.0 | 4.3 | 0.00 | 0.03 | 0.03 | 43 | 1008.5 |
| 20260509204514 | 79 | 245 | 0.9 | 4.3 | 0.00 | 0.03 | 0.03 | 41 | 1008.6 |
| 20260509204006 | 79 | 276 | 0.9 | 2.6 | 0.00 | 0.03 | 0.03 | 42 | 1008.6 |
| 20260509203508 | 78 | 229 | 0.0 | 2.6 | 0.00 | 0.03 | 0.03 | 44 | 1008.5 |
| 20260509203003 | 78 | 256 | 0.0 | 2.6 | 0.00 | 0.03 | 0.03 | 42 | 1008.3 |
| 20260509202504 | 78 | 252 | 0.9 | 3.5 | 0.00 | 0.03 | 0.03 | 45 | 1008.4 |
| 20260509202002 | 78 | 155 | 0.9 | 3.5 | 0.00 | 0.03 | 0.03 | 43 | 1008.3 |
| 20260509201503 | 78 | 274 | 0.0 | 2.6 | 0.01 | 0.03 | 0.03 | 47 | 1008.3 |
| 20260509201005 | 77 | 303 | 0.9 | 4.3 | 0.03 | 0.03 | 0.03 | 44 | 1008.3 |
| 20260509200504 | 77 | 230 | 0.9 | 4.3 | 0.03 | 0.03 | 0.03 | 44 | 1008.5 |
| 20260509200006 | 78 | 108 | 0.0 | 3.5 | 0.03 | 0.03 | 0.03 | 45 | 1008.6 |
| 20260509195508 | 78 | 258 | 0.0 | 5.2 | 0.03 | 0.03 | 0.03 | 45 | 1008.7 |
| 20260509195003 | 77 | 276 | 0.0 | 5.2 | 0.03 | 0.03 | 0.03 | 47 | 1008.8 |
| 20260509194514 | 77 | 30 | 0.9 | 5.2 | 0.03 | 0.03 | 0.03 | 46 | 1008.9 |
| 20260509194005 | 76 | 275 | 0.9 | 4.3 | 0.03 | 0.03 | 0.03 | 48 | 1008.9 |
| 20260509193513 | 76 | 156 | 0.9 | 4.3 | 0.03 | 0.03 | 0.03 | 47 | 1008.9 |
| 20260509193013 | 75 | 128 | 0.0 | 1.7 | 0.03 | 0.03 | 0.03 | 51 | 1009.0 |
| 20260509192507 | 75 | 249 | 0.0 | 3.5 | 0.03 | 0.03 | 0.03 | 48 | 1009.1 |
| 20260509192011 | 75 | 212 | 0.0 | 3.5 | 0.03 | 0.03 | 0.03 | 48 | 1009.2 |
| 20260509191518 | 75 | 175 | 0.0 | 1.7 | 0.02 | 0.02 | 0.02 | 51 | 1009.4 |
| 20260509191004 | 75 | 204 | 0.0 | 1.7 | 0.00 | 0.00 | 0.00 | 49 | 1009.4 |
| 20260509190502 | 75 | 204 | 0.0 | 1.7 | 0.00 | 0.00 | 0.00 | 49 | 1009.5 |
| 20260509190009 | 74 | 203 | 0.0 | 1.7 | 0.00 | 0.00 | 0.00 | 49 | 1009.6 |
| 20260509185508 | 74 | 204 | 0.0 | 3.5 | 0.00 | 0.00 | 0.00 | 50 | 1009.6 |
| 20260509185004 | 74 | 204 | 0.9 | 3.5 | 0.00 | 0.00 | 0.00 | 49 | 1009.5 |
| 20260509184508 | 74 | 203 | 0.9 | 3.5 | 0.00 | 0.00 | 0.00 | 50 | 1009.5 |
| 20260509184006 | 73 | 204 | 0.0 | 0.9 | 0.00 | 0.00 | 0.00 | 51 | 1009.4 |
| 20260509183506 | 72 | 204 | 0.0 | 0.9 | 0.00 | 0.00 | 0.00 | 54 | 1009.4 |
| 20260509183012 | 71 | 204 | 0.0 | 0.9 | 0.00 | 0.00 | 0.00 | 53 | 1009.8 |
| 20260509182506 | 71 | 203 | 0.0 | 1.7 | 0.00 | 0.00 | 0.00 | 54 | 1009.8 |
| 20260509182006 | 71 | 204 | 0.0 | 1.7 | 0.00 | 0.00 | 0.00 | 53 | 1009.8 |
| 20260509181516 | 70 | 203 | 0.0 | 1.7 | 0.00 | 0.00 | 0.00 | 55 | 1009.9 |
| 20260509181010 | 70 | 204 | 0.0 | 1.7 | 0.00 | 0.00 | 0.00 | 54 | 1009.8 |
| 20260509180507 | 69 | 204 | 0.0 | 1.7 | 0.00 | 0.00 | 0.00 | 55 | 1010.1 |
| 20260509180020 | 69 | 204 | 0.0 | 1.7 | 0.00 | 0.00 | 0.00 | 54 | 1010.3 |
| 20260509175503 | 69 | 203 | 0.0 | 4.3 | 0.00 | 0.00 | 0.00 | 55 | 1010.5 |
| 20260509175004 | 69 | 203 | 0.9 | 4.3 | 0.00 | 0.00 | 0.00 | 55 | 1010.5 |
| 20260509174512 | 70 | 204 | 0.9 | 2.6 | 0.00 | 0.00 | 0.00 | 54 | 1010.6 |
| 20260509174004 | 70 | 204 | 0.0 | 2.6 | 0.00 | 0.00 | 0.00 | 54 | 1010.6 |
| 20260509173505 | 70 | 204 | 0.0 | 3.5 | 0.00 | 0.00 | 0.00 | 54 | 1010.6 |
| 20260509173002 | 70 | 203 | 0.9 | 3.5 | 0.00 | 0.00 | 0.00 | 54 | 1010.7 |
| 20260509172502 | 71 | 204 | 0.0 | 1.7 | 0.00 | 0.00 | 0.00 | 54 | 1010.7 |
| 20260509172002 | 71 | 203 | 0.0 | 0.9 | 0.00 | 0.00 | 0.00 | 55 | 1010.6 |
| 20260509171502 | 70 | 203 | 0.0 | 0.9 | 0.00 | 0.00 | 0.00 | 54 | 1010.7 |
| 20260509171002 | 70 | 204 | 0.0 | 4.3 | 0.00 | 0.00 | 0.00 | 55 | 1010.7 |
| 20260509170502 | 69 | 203 | 0.9 | 4.3 | 0.00 | 0.00 | 0.00 | 56 | 1010.8 |
| 20260509170004 | 69 | 204 | 1.7 | 3.5 | 0.00 | 0.00 | 0.00 | 54 | 1010.7 |
| 20260509165503 | 69 | 204 | 0.0 | 2.6 | 0.00 | 0.00 | 0.00 | 55 | 1010.8 |
| 20260509165005 | 69 | 203 | 0.9 | 2.6 | 0.00 | 0.00 | 0.00 | 54 | 1010.9 |
| 20260509164506 | 69 | 203 | 0.0 | 1.7 | 0.00 | 0.00 | 0.00 | 55 | 1010.8 |
| 20260509164007 | 69 | 203 | 0.0 | 1.7 | 0.00 | 0.00 | 0.00 | 54 | 1010.8 |
| 20260509163501 | 69 | 203 | 0.0 | 1.7 | 0.00 | 0.00 | 0.00 | 54 | 1010.8 |
| 20260509163009 | 69 | 203 | 0.0 | 0.9 | 0.00 | 0.00 | 0.00 | 54 | 1010.9 |
| 20260509162503 | 69 | 203 | 0.0 | 0.9 | 0.00 | 0.00 | 0.00 | 53 | 1010.9 |
| 20260509162002 | 69 | 203 | 0.0 | 0.9 | 0.00 | 0.00 | 0.00 | 54 | 1010.9 |
| 20260509161502 | 69 | 203 | 0.0 | 0.9 | 0.00 | 0.00 | 0.00 | 53 | 1010.9 |
| 20260509161002 | 69 | 203 | 0.0 | 1.7 | 0.00 | 0.00 | 0.00 | 54 | 1010.9 |
| 20260509160503 | 69 | 203 | 0.0 | 1.7 | 0.00 | 0.00 | 0.00 | 53 | 1011.0 |
| 20260509160006 | 69 | 203 | 0.0 | 0.9 | 0.00 | 0.00 | 0.00 | 52 | 1011.0 |
| 20260509155502 | 69 | 203 | 0.0 | 1.7 | 0.00 | 0.00 | 0.00 | 53 | 1010.9 |
| 20260509155005 | 68 | 203 | 0.9 | 2.6 | 0.00 | 0.00 | 0.00 | 54 | 1010.9 |
| 20260509154504 | 68 | 203 | 0.9 | 2.6 | 0.00 | 0.00 | 0.00 | 52 | 1010.9 |
| 20260509154003 | 68 | 203 | 0.0 | 1.7 | 0.00 | 0.00 | 0.00 | 53 | 1011.0 |
| 20260509153503 | 68 | 203 | 0.9 | 1.7 | 0.00 | 0.00 | 0.00 | 55 | 1011.0 |
| 20260509153009 | 67 | 203 | 0.0 | 0.9 | 0.00 | 0.00 | 0.00 | 55 | 1011.0 |
| 20260509152502 | 67 | 203 | 0.0 | 1.7 | 0.00 | 0.00 | 0.00 | 55 | 1011.0 |
| 20260509152003 | 66 | 203 | 0.0 | 1.7 | 0.00 | 0.00 | 0.00 | 55 | 1011.0 |
| 20260509151509 | 66 | 203 | 0.0 | 0.9 | 0.00 | 0.00 | 0.00 | 54 | 1011.1 |
| 20260509151002 | 66 | 203 | 0.0 | 0.9 | 0.00 | 0.00 | 0.00 | 56 | 1011.2 |
| 20260509150506 | 65 | 203 | 0.0 | 1.7 | 0.00 | 0.00 | 0.00 | 57 | 1011.2 |
| 20260509150003 | 65 | 203 | 0.0 | 1.7 | 0.00 | 0.00 | 0.00 | 56 | 1011.1 |
| 20260509145505 | 64 | 203 | 0.0 | 1.7 | 0.00 | 0.00 | 0.00 | 58 | 1011.3 |
| 20260509145003 | 64 | 203 | 0.0 | 1.7 | 0.00 | 0.00 | 0.00 | 60 | 1011.3 |
| 20260509144502 | 63 | 203 | 0.0 | 3.5 | 0.00 | 0.00 | 0.00 | 57 | 1011.4 |
| 20260509144002 | 63 | 203 | 0.9 | 3.5 | 0.00 | 0.00 | 0.00 | 57 | 1011.6 |
| 20260509143502 | 63 | 203 | 0.0 | 2.6 | 0.00 | 0.00 | 0.00 | 57 | 1011.6 |
| 20260509143005 | 63 | 203 | 0.0 | 2.6 | 0.00 | 0.00 | 0.00 | 57 | 1011.6 |
| 20260509142504 | 62 | 203 | 0.0 | 1.7 | 0.00 | 0.00 | 0.00 | 58 | 1011.8 |
| 20260509142003 | 62 | 203 | 0.0 | 1.7 | 0.00 | 0.00 | 0.00 | 58 | 1011.9 |
| 20260509141516 | 62 | 203 | 0.0 | 1.7 | 0.00 | 0.00 | 0.00 | 59 | 1011.9 |
| 20260509141003 | 62 | 203 | 0.0 | 1.7 | 0.00 | 0.00 | 0.00 | 58 | 1012.0 |
| 20260509140502 | 62 | 203 | 0.0 | 1.7 | 0.00 | 0.00 | 0.00 | 59 | 1011.9 |
| 20260509140007 | 61 | 203 | 0.0 | 1.7 | 0.00 | 0.00 | 0.00 | 58 | 1011.8 |
| 20260509135508 | 61 | 203 | 0.0 | 0.0 | 0.00 | 0.00 | 0.00 | 59 | 1011.7 |
| 20260509135006 | 61 | 203 | 0.0 | 0.0 | 0.00 | 0.00 | 0.00 | 60 | 1011.7 |
| 20260509134529 | 0 | 0.0 | 0.0 | 0.00 | 0.00 | 0.00 | 1011.7 | ||
| 20260509134010 | 0 | 0.0 | 0.0 | 0.00 | 0.00 | 0.00 | 1011.8 | ||
| 20260509133510 | 0 | 0.0 | 0.0 | 0.00 | 0.00 | 0.00 | 1011.8 | ||
| 20260509133028 | 0 | 0.0 | 0.0 | 0.00 | 0.00 | 0.00 | 1011.9 | ||
| 20260509132512 | 0 | 0.0 | 0.0 | 0.00 | 0.00 | 0.00 | 1011.9 | ||
| 20260509132010 | 0 | 0.0 | 0.0 | 0.00 | 0.00 | 0.00 | 1012.0 | ||
| 20260509131537 | 0 | 0.0 | 0.0 | 0.00 | 0.00 | 0.00 | 1011.9 | ||
| 20260509131009 | 0 | 0.0 | 0.0 | 0.00 | 0.00 | 0.00 | 1011.9 | ||
| 20260509130510 | 0 | 0.0 | 0.0 | 0.00 | 0.00 | 0.00 | 1011.9 | ||
| 20260509125514 | 0 | 0.0 | 0.0 | 0.00 | 0.00 | 0.00 | 1012.0 | ||
| 20260509125010 | 0 | 0.0 | 0.0 | 0.00 | 0.00 | 0.00 | 1012.0 | ||
| 20260509124529 | 0 | 0.0 | 0.0 | 0.00 | 0.00 | 0.00 | 1012.0 | ||
| 20260509124009 | 0 | 0.0 | 0.0 | 0.00 | 0.00 | 0.00 | 1012.2 | ||
| 20260509123511 | 0 | 0.0 | 0.0 | 0.00 | 0.00 | 0.00 | 1012.0 | ||
| 20260509123029 | 0 | 0.0 | 0.0 | 0.00 | 0.00 | 0.00 | 1011.8 | ||
| 20260509122511 | 0 | 0.0 | 0.0 | 0.00 | 0.00 | 0.00 | 1011.7 | ||
| 20260509122010 | 0 | 0.0 | 0.0 | 0.00 | 0.00 | 0.00 | 1011.6 | ||
| 20260509121533 | 0 | 0.0 | 0.0 | 0.00 | 0.00 | 0.00 | 1011.7 | ||
| 20260509121010 | 0 | 0.0 | 0.0 | 0.00 | 0.00 | 0.00 | 1011.7 | ||
| 20260509120510 | 0 | 0.0 | 0.0 | 0.00 | 0.00 | 0.00 | 1011.7 | ||
| 20260509120028 | 0 | 0.0 | 0.0 | 0.00 | 0.00 | 0.00 | 1011.6 | ||
| 20260509115512 | 0 | 0.0 | 0.0 | 0.00 | 0.00 | 0.00 | 1011.6 | ||
| 20260509115011 | 0 | 0.0 | 0.0 | 0.00 | 0.00 | 0.00 | 1011.4 | ||
| 20260509114530 | 0 | 0.0 | 0.0 | 0.00 | 0.00 | 0.00 | 1011.5 | ||
| 20260509114012 | 0 | 0.0 | 0.0 | 0.00 | 0.00 | 0.00 | 1011.4 | ||
| 20260509113512 | 0 | 0.0 | 0.0 | 0.00 | 0.00 | 0.00 | 1011.3 | ||
| 20260509113029 | 0 | 0.0 | 0.0 | 0.00 | 0.00 | 0.00 | 1011.3 | ||
| 20260509112511 | 0 | 0.0 | 0.0 | 0.00 | 0.00 | 0.00 | 1011.2 | ||
| 20260509112011 | 0 | 0.0 | 0.0 | 0.00 | 0.00 | 0.00 | 1011.1 | ||
| 20260509111530 | 0 | 0.0 | 0.0 | 0.00 | 0.00 | 0.00 | 1011.1 | ||
| 20260509111010 | 0 | 0.0 | 0.0 | 0.00 | 0.00 | 0.00 | 1011.1 | ||
| 20260509110510 | 0 | 0.0 | 0.0 | 0.00 | 0.00 | 0.00 | 1011.1 | ||
| 20260509110030 | 0 | 0.0 | 0.0 | 0.00 | 0.00 | 0.00 | 1011.2 | ||
| 20260509105508 | 0 | 0.0 | 0.0 | 0.00 | 0.00 | 0.00 | 1011.1 | ||
| 20260509105010 | 0 | 0.0 | 0.0 | 0.00 | 0.00 | 0.00 | 1011.1 | ||
| 20260509104534 | 0 | 0.0 | 0.0 | 0.00 | 0.00 | 0.00 | 1010.9 | ||
| 20260509104011 | 0 | 0.0 | 0.0 | 0.00 | 0.00 | 0.00 | 1011.0 | ||
| 20260509103512 | 0 | 0.0 | 0.0 | 0.00 | 0.00 | 0.00 | 1011.0 | ||
| 20260509103031 | 0 | 0.0 | 0.0 | 0.00 | 0.00 | 0.00 | 1011.0 | ||
| 20260509102510 | 0 | 0.0 | 0.0 | 0.00 | 0.00 | 0.00 | 1010.9 | ||
| 20260509102011 | 0 | 0.0 | 0.0 | 0.00 | 0.00 | 0.00 | 1011.0 | ||
| 20260509101531 | 0 | 0.0 | 0.0 | 0.00 | 0.00 | 0.00 | 1010.9 | ||
| 20260509101013 | 0 | 0.0 | 0.0 | 0.00 | 0.00 | 0.00 | 1010.9 | ||
| 20260509100514 | 0 | 0.0 | 0.0 | 0.00 | 0.00 | 0.00 | 1010.9 | ||
| 20260509100039 | 0 | 0.0 | 0.0 | 0.00 | 0.00 | 0.00 | 1010.9 | ||
| 20260509095511 | 0 | 0.0 | 0.0 | 0.00 | 0.00 | 0.00 | 1010.8 | ||
| 20260509095012 | 0 | 0.0 | 0.0 | 0.00 | 0.00 | 0.00 | 1010.8 | ||
| 20260509094533 | 0 | 0.0 | 0.0 | 0.00 | 0.00 | 0.00 | 1010.8 | ||
| 20260509094011 | 0 | 0.0 | 0.0 | 0.00 | 0.00 | 0.00 | 1010.9 | ||
| 20260509093510 | 0 | 0.0 | 0.0 | 0.00 | 0.00 | 0.00 | 1010.9 | ||
| 20260509093034 | 0 | 0.0 | 0.0 | 0.00 | 0.00 | 0.00 | 1010.9 | ||
| 20260509092510 | 0 | 0.0 | 0.0 | 0.00 | 0.00 | 0.00 | 1011.0 | ||
| 20260509092013 | 0 | 0.0 | 0.0 | 0.00 | 0.00 | 0.00 | 1011.2 | ||
| 20260509091530 | 0 | 0.0 | 0.0 | 0.00 | 0.00 | 0.00 | 1011.1 | ||
| 20260509091010 | 0 | 0.0 | 0.0 | 0.00 | 0.00 | 0.00 | 1011.2 | ||
| 20260509090028 | 0 | 199 | 0.0 | 0.9 | 0.00 | 0.00 | 0.00 | 56 | 1011.3 |
| 20260509085503 | 57 | 203 | 0.0 | 0.9 | 0.00 | 0.00 | 0.00 | 56 | 1011.3 |
| 20260509085006 | 57 | 203 | 0.0 | 0.9 | 0.00 | 0.00 | 0.00 | 56 | 1011.3 |
| 20260509084503 | 57 | 203 | 0.0 | 0.9 | 0.00 | 0.00 | 0.00 | 56 | 1011.3 |
| 20260509084005 | 57 | 203 | 0.0 | 0.0 | 0.00 | 0.00 | 0.00 | 56 | 1011.3 |
| 20260509083505 | 57 | 203 | 0.0 | 0.0 | 0.00 | 0.00 | 0.00 | 56 | 1011.4 |
| 20260509083004 | 57 | 203 | 0.0 | 0.9 | 0.00 | 0.00 | 0.00 | 56 | 1011.4 |
| 20260509082507 | 57 | 203 | 0.0 | 1.7 | 0.00 | 0.00 | 0.00 | 56 | 1011.4 |
| 20260509082004 | 57 | 203 | 0.0 | 1.7 | 0.00 | 0.00 | 0.00 | 56 | 1011.4 |
| 20260509081518 | 57 | 203 | 0.0 | 0.9 | 0.00 | 0.00 | 0.00 | 55 | 1011.5 |
| 20260509081005 | 57 | 203 | 0.0 | 1.7 | 0.00 | 0.00 | 0.00 | 55 | 1011.6 |
| 20260509080509 | 57 | 203 | 0.0 | 1.7 | 0.00 | 0.00 | 0.00 | 55 | 1011.6 |
| 20260509080015 | 57 | 203 | 0.0 | 0.0 | 0.00 | 0.00 | 0.00 | 55 | 1011.7 |
| 20260509075510 | 58 | 203 | 0.0 | 0.9 | 0.00 | 0.00 | 0.00 | 54 | 1011.8 |
| 20260509075011 | 58 | 203 | 0.0 | 0.9 | 0.00 | 0.00 | 0.00 | 54 | 1011.8 |
| 20260509074516 | 58 | 203 | 0.0 | 0.0 | 0.00 | 0.00 | 0.00 | 53 | 1011.8 |
| 20260509074004 | 58 | 203 | 0.0 | 0.0 | 0.00 | 0.00 | 0.00 | 53 | 1011.8 |
| 20260509073503 | 58 | 203 | 0.0 | 0.9 | 0.00 | 0.00 | 0.00 | 52 | 1011.8 |
| 20260509073007 | 58 | 203 | 0.0 | 0.9 | 0.00 | 0.00 | 0.00 | 51 | 1011.8 |
| 20260509072504 | 59 | 203 | 0.0 | 0.9 | 0.00 | 0.00 | 0.00 | 51 | 1011.7 |
| 20260509072004 | 59 | 203 | 0.0 | 1.7 | 0.00 | 0.00 | 0.00 | 51 | 1011.7 |
| 20260509071510 | 59 | 203 | 0.0 | 1.7 | 0.00 | 0.00 | 0.00 | 52 | 1011.6 |
| 20260509071005 | 59 | 203 | 0.0 | 1.7 | 0.00 | 0.00 | 0.00 | 51 | 1011.6 |
| 20260509070504 | 59 | 203 | 0.0 | 1.7 | 0.00 | 0.00 | 0.00 | 51 | 1011.6 |
| 20260509070010 | 59 | 203 | 0.0 | 1.7 | 0.00 | 0.00 | 0.00 | 50 | 1011.6 |
| 20260509065507 | 59 | 203 | 0.0 | 1.7 | 0.00 | 0.00 | 0.00 | 50 | 1011.6 |
| 20260509065008 | 59 | 203 | 0.0 | 2.6 | 0.00 | 0.00 | 0.00 | 50 | 1011.7 |
| 20260509064515 | 59 | 203 | 0.9 | 2.6 | 0.00 | 0.00 | 0.00 | 50 | 1011.7 |
| 20260509064008 | 59 | 203 | 0.0 | 0.9 | 0.00 | 0.00 | 0.00 | 50 | 1011.7 |
| 20260509063509 | 59 | 203 | 0.0 | 1.7 | 0.00 | 0.00 | 0.00 | 50 | 1011.7 |
| 20260509063019 | 59 | 203 | 0.0 | 1.7 | 0.00 | 0.00 | 0.00 | 50 | 1011.7 |
| 20260509062505 | 59 | 203 | 0.0 | 0.9 | 0.00 | 0.00 | 0.00 | 50 | 1011.8 |
| 20260509062004 | 59 | 203 | 0.0 | 2.6 | 0.00 | 0.00 | 0.00 | 50 | 1011.9 |
| 20260509061504 | 59 | 203 | 0.0 | 2.6 | 0.00 | 0.00 | 0.00 | 50 | 1012.0 |
| 20260509061003 | 59 | 203 | 0.0 | 1.7 | 0.00 | 0.00 | 0.00 | 50 | 1012.1 |
| 20260509060503 | 59 | 203 | 0.0 | 1.7 | 0.00 | 0.00 | 0.00 | 49 | 1012.1 |
| 20260509060012 | 59 | 203 | 0.0 | 1.7 | 0.00 | 0.00 | 0.00 | 50 | 1012.1 |
| 20260509055504 | 59 | 203 | 0.0 | 1.7 | 0.00 | 0.00 | 0.00 | 49 | 1012.1 |
| 20260509055005 | 59 | 203 | 0.0 | 1.7 | 0.00 | 0.00 | 0.00 | 49 | 1012.1 |
| 20260509054519 | 59 | 203 | 0.0 | 1.7 | 0.00 | 0.00 | 0.00 | 49 | 1012.0 |
| 20260509054009 | 60 | 203 | 0.0 | 1.7 | 0.00 | 0.00 | 0.00 | 48 | 1012.0 |
| 20260509053506 | 60 | 203 | 0.0 | 1.7 | 0.00 | 0.00 | 0.00 | 48 | 1012.1 |
| 20260509053016 | 60 | 203 | 0.0 | 1.7 | 0.00 | 0.00 | 0.00 | 48 | 1012.1 |
| 20260509052013 | 60 | 203 | 0.0 | 2.6 | 0.00 | 0.00 | 0.00 | 47 | 1012.0 |
| 20260509051530 | 60 | 203 | 0.0 | 1.7 | 0.00 | 0.00 | 0.00 | 47 | 1012.2 |
| 20260509051011 | 60 | 203 | 0.0 | 3.5 | 0.00 | 0.00 | 0.00 | 47 | 1012.1 |
| 20260509050506 | 60 | 203 | 0.0 | 3.5 | 0.00 | 0.00 | 0.00 | 47 | 1012.0 |
| 20260509050008 | 60 | 203 | 0.0 | 3.5 | 0.00 | 0.00 | 0.00 | 47 | 1012.0 |
| 20260509045508 | 60 | 203 | 0.0 | 2.6 | 0.00 | 0.00 | 0.00 | 47 | 1011.8 |